This is the latest recevied weather packets stored in our database for station/object ES2ADF-5. If no packets are shown the sender has not sent any weather packets the latest 1 day(s).
| Time | Temp. | Humidity | Pressure | Rain* | Wind** | Luminosity | Snow |
|---|---|---|---|---|---|---|---|
| 1778059312 | 12.22° C | 39% | 1012.9 hPa | 0 mm | - | - | - |
| 1778059012 | 12.22° C | 40% | 1013 hPa | 0 mm | - | - | - |
| 1778058411 | 12.22° C | 39% | 1013.1 hPa | 0 mm | - | - | - |
| 1778058111 | 12.22° C | 38% | 1013.1 hPa | 0 mm | - | - | - |
| 1778057510 | 12.22° C | 40% | 1013.1 hPa | 0 mm | - | - | - |
| 1778057210 | 12.22° C | 40% | 1013 hPa | 0 mm | - | - | - |
| 1778056910 | 12.22° C | 40% | 1012.9 hPa | 0 mm | - | - | - |
| 1778056609 | 12.22° C | 41% | 1012.9 hPa | 0 mm | - | - | - |
| 1778056309 | 12.22° C | 42% | 1012.8 hPa | 0 mm | - | - | - |
| 1778056009 | 12.22° C | 41% | 1012.7 hPa | 0 mm | - | - | - |
| 1778055408 | 12.78° C | 41% | 1012.9 hPa | 0 mm | - | - | - |
| 1778055108 | 12.78° C | 42% | 1012.8 hPa | 0 mm | - | - | - |
| 1778054207 | 11.67° C | 43% | 1012.5 hPa | 0 mm | - | - | - |
| 1778053907 | 11.67° C | 42% | 1012.4 hPa | 0 mm | - | - | - |
| 1778053306 | 11.67° C | 41% | 1012.5 hPa | 0 mm | - | - | - |
| 1778053006 | 12.22° C | 41% | 1012.4 hPa | 0 mm | - | - | - |
| 1778052706 | 12.22° C | 41% | 1012.4 hPa | 0 mm | - | - | - |
| 1778052405 | 12.78° C | 40% | 1012.4 hPa | 0 mm | - | - | - |
| 1778052105 | 13.33° C | 39% | 1012.3 hPa | 0 mm | - | - | - |
| 1778051805 | 13.89° C | 38% | 1012.3 hPa | 0 mm | - | - | - |
| 1778051204 | 16.67° C | 35% | 1011.9 hPa | 0 mm | - | - | - |
| 1778050904 | 20° C | 34% | 1011.8 hPa | 0 mm | - | - | - |
| 1778050003 | 20° C | 37% | 1011.9 hPa | 0 mm | - | - | - |
| 1778049703 | 20° C | 37% | 1012 hPa | 0 mm | - | - | - |
| 1778049402 | 20.56° C | 36% | 1011.9 hPa | 0 mm | - | - | - |
* Rain latest hour (hover to see other rain measurements)
** Current wind speed in m/s (hover to see current wind gust speed)